createdAt,value
2019-01-16T00:00:13.157Z,0.00
2019-01-16T00:01:13.242Z,0.00
2019-01-16T00:02:13.331Z,0.00
2019-01-16T00:03:13.418Z,0.00
2019-01-16T00:04:13.506Z,0.00
2019-01-16T00:05:13.595Z,0.00
2019-01-16T00:06:13.681Z,0.00
2019-01-16T00:07:13.772Z,0.00
2019-01-16T00:08:13.857Z,0.00
2019-01-16T00:09:13.944Z,0.00
2019-01-16T00:10:14.037Z,0.00
2019-01-16T00:11:14.122Z,0.00
2019-01-16T00:12:14.215Z,0.00
2019-01-16T00:13:14.296Z,0.00
2019-01-16T00:14:14.387Z,0.00
2019-01-16T00:15:14.475Z,0.00
2019-01-16T00:16:14.565Z,0.00
2019-01-16T00:17:14.658Z,0.00
2019-01-16T00:18:17.186Z,0.00
2019-01-16T00:19:14.834Z,0.00
2019-01-16T00:20:14.911Z,0.00
2019-01-16T00:21:15.105Z,0.00
2019-01-16T00:22:15.076Z,0.00
2019-01-16T00:23:15.201Z,0.00
2019-01-16T00:24:15.247Z,0.00
2019-01-16T00:25:15.336Z,0.00
2019-01-16T00:26:15.426Z,0.00
2019-01-16T00:27:15.515Z,0.00
2019-01-16T00:28:15.607Z,0.00
2019-01-16T00:29:15.699Z,0.00
2019-01-16T00:30:15.780Z,0.00
2019-01-16T00:31:15.866Z,0.00
2019-01-16T00:32:15.955Z,0.00
2019-01-16T00:33:16.045Z,0.00
2019-01-16T00:34:16.132Z,0.00
2019-01-16T00:35:16.225Z,0.00
2019-01-16T00:36:16.313Z,0.00
2019-01-16T00:37:16.403Z,0.00
2019-01-16T00:38:16.492Z,0.00
2019-01-16T00:39:16.579Z,0.00
2019-01-16T00:40:16.670Z,0.00
2019-01-16T00:41:16.757Z,0.00
2019-01-16T00:42:16.848Z,0.00
2019-01-16T00:43:16.936Z,0.00
2019-01-16T00:44:17.024Z,0.00
2019-01-16T00:45:17.112Z,0.00
2019-01-16T00:46:17.202Z,0.00
2019-01-16T00:47:17.291Z,0.00
2019-01-16T00:48:24.401Z,0.00
2019-01-16T00:49:17.470Z,0.00
2019-01-16T00:50:17.559Z,0.00
2019-01-16T00:51:17.650Z,0.00
2019-01-16T00:52:17.738Z,0.00
2019-01-16T00:53:17.830Z,0.00
2019-01-16T00:54:17.925Z,0.00
2019-01-16T00:55:18.005Z,0.00
2019-01-16T00:56:18.092Z,0.00
2019-01-16T00:57:18.182Z,0.00
2019-01-16T00:58:18.273Z,0.00
2019-01-16T00:59:18.380Z,0.00
2019-01-16T01:00:18.450Z,0.00
2019-01-16T01:01:18.540Z,0.00
2019-01-16T01:02:18.626Z,0.00
2019-01-16T01:03:18.715Z,0.00
2019-01-16T01:04:18.802Z,0.00
2019-01-16T01:05:18.888Z,0.00
2019-01-16T01:06:18.977Z,0.00
2019-01-16T01:07:19.066Z,0.00
2019-01-16T01:08:19.156Z,0.00
2019-01-16T01:09:19.244Z,0.00
2019-01-16T01:10:19.331Z,0.00
2019-01-16T01:11:19.420Z,0.00
2019-01-16T01:12:19.509Z,0.00
2019-01-16T01:13:19.599Z,0.00
2019-01-16T01:14:19.688Z,0.00
2019-01-16T01:15:19.779Z,0.00
2019-01-16T01:16:19.867Z,0.00
2019-01-16T01:17:19.953Z,0.00
2019-01-16T01:18:20.046Z,0.00
2019-01-16T01:19:20.137Z,0.00
2019-01-16T01:20:20.226Z,0.00
2019-01-16T01:21:20.314Z,0.00
2019-01-16T01:22:20.400Z,0.00
2019-01-16T01:23:20.490Z,0.00
2019-01-16T01:24:20.581Z,0.00
2019-01-16T01:25:20.667Z,0.00
2019-01-16T01:26:20.753Z,0.00
2019-01-16T01:27:20.843Z,0.00
2019-01-16T01:28:20.932Z,0.00
2019-01-16T01:29:21.021Z,0.00
2019-01-16T01:30:21.112Z,0.00
2019-01-16T01:31:21.202Z,0.00
2019-01-16T01:32:21.327Z,0.00
2019-01-16T01:33:21.375Z,0.00
2019-01-16T01:34:21.596Z,0.00
2019-01-16T01:35:21.562Z,0.00
2019-01-16T01:36:21.648Z,0.00
2019-01-16T01:37:21.739Z,0.00
2019-01-16T01:38:21.823Z,0.00
2019-01-16T01:39:21.909Z,0.00
2019-01-16T01:40:21.999Z,0.00
2019-01-16T01:41:22.087Z,0.00
2019-01-16T01:42:22.178Z,0.00
2019-01-16T01:43:22.268Z,0.00
2019-01-16T01:44:22.455Z,0.00
2019-01-16T01:45:22.425Z,0.00
2019-01-16T01:46:22.512Z,0.00
2019-01-16T01:47:22.599Z,0.00
2019-01-16T01:48:22.687Z,0.00
2019-01-16T01:49:22.776Z,0.00
2019-01-16T01:50:22.865Z,0.00
2019-01-16T01:51:22.954Z,0.00
2019-01-16T01:52:23.043Z,0.00
2019-01-16T01:53:23.131Z,0.00
2019-01-16T01:54:23.219Z,0.00
2019-01-16T01:55:23.308Z,0.00
2019-01-16T01:56:23.398Z,0.00
2019-01-16T01:57:23.486Z,0.00
2019-01-16T01:58:23.578Z,0.00
2019-01-16T01:59:23.664Z,0.00
2019-01-16T02:00:23.757Z,0.00
2019-01-16T02:01:23.849Z,0.00
2019-01-16T02:02:23.936Z,0.00
2019-01-16T02:03:24.024Z,0.00
2019-01-16T02:04:24.112Z,0.00
2019-01-16T02:05:24.202Z,0.00
2019-01-16T02:06:24.286Z,0.00
2019-01-16T02:07:24.377Z,0.00
2019-01-16T02:08:24.469Z,0.00
2019-01-16T02:09:24.557Z,0.00
2019-01-16T02:10:24.645Z,0.00
2019-01-16T02:11:24.733Z,0.00
2019-01-16T02:12:24.824Z,0.00
2019-01-16T02:13:24.916Z,0.00
2019-01-16T02:14:25.004Z,0.00
2019-01-16T02:15:25.092Z,0.00
2019-01-16T02:16:25.180Z,0.00
2019-01-16T02:17:25.270Z,0.00
2019-01-16T02:18:25.359Z,0.00
2019-01-16T02:19:25.447Z,0.00
2019-01-16T02:20:25.535Z,0.00
2019-01-16T02:21:26.955Z,0.00
2019-01-16T02:24:09.746Z,0.00
2019-01-16T02:25:09.834Z,0.00
2019-01-16T02:26:09.921Z,0.00
2019-01-16T02:27:10.013Z,0.00
2019-01-16T02:28:10.107Z,0.00
2019-01-16T02:29:10.186Z,0.00
2019-01-16T02:30:10.276Z,0.00
2019-01-16T02:31:10.367Z,0.00
2019-01-16T02:32:10.456Z,0.00
2019-01-16T02:33:10.541Z,0.00
2019-01-16T02:34:10.632Z,0.00
2019-01-16T02:35:17.891Z,0.00
2019-01-16T02:36:10.858Z,0.00
2019-01-16T02:37:10.950Z,0.00
2019-01-16T02:38:11.044Z,0.00
2019-01-16T02:39:11.127Z,0.00
2019-01-16T02:40:11.216Z,0.00
2019-01-16T02:41:11.302Z,0.00
2019-01-16T02:42:11.390Z,0.00
2019-01-16T02:43:11.479Z,0.00
2019-01-16T02:44:11.570Z,0.00
2019-01-16T02:45:11.660Z,0.00
2019-01-16T02:46:11.748Z,0.00
2019-01-16T02:47:11.834Z,0.00
2019-01-16T02:48:11.926Z,0.00
2019-01-16T02:49:12.012Z,0.00
2019-01-16T02:50:12.098Z,0.00
2019-01-16T02:51:12.188Z,0.00
2019-01-16T02:52:12.278Z,0.00
2019-01-16T02:53:12.364Z,0.00
2019-01-16T02:54:12.459Z,0.00
2019-01-16T02:55:12.547Z,0.00
2019-01-16T02:56:12.640Z,0.00
2019-01-16T02:57:12.722Z,0.00
2019-01-16T02:58:12.815Z,0.00
2019-01-16T02:59:12.908Z,0.00
2019-01-16T03:00:13.003Z,0.00
2019-01-16T03:01:13.080Z,0.00
2019-01-16T03:02:13.195Z,0.00
2019-01-16T03:03:13.260Z,0.00
2019-01-16T03:04:13.350Z,0.00
2019-01-16T03:05:13.439Z,0.00
2019-01-16T03:06:13.527Z,0.00
2019-01-16T03:07:13.615Z,0.00
2019-01-16T03:08:13.706Z,0.00
2019-01-16T03:09:13.794Z,0.00
2019-01-16T03:10:13.884Z,0.00
2019-01-16T03:11:13.971Z,0.00
2019-01-16T03:12:14.061Z,0.00
2019-01-16T03:13:14.147Z,0.00
2019-01-16T03:14:14.235Z,0.00
2019-01-16T03:15:14.325Z,0.00
2019-01-16T03:16:14.415Z,0.00
2019-01-16T03:17:14.505Z,0.00
2019-01-16T03:18:14.594Z,0.00
2019-01-16T03:19:14.679Z,0.00
2019-01-16T03:20:14.769Z,0.00
2019-01-16T03:21:14.857Z,0.00
2019-01-16T03:22:14.957Z,0.00
2019-01-16T03:23:15.044Z,0.00
2019-01-16T03:24:15.131Z,0.00
2019-01-16T03:25:15.215Z,0.00
2019-01-16T03:26:15.295Z,0.00
2019-01-16T03:27:15.389Z,0.00
2019-01-16T03:28:15.476Z,0.00
2019-01-16T03:29:15.559Z,0.00
2019-01-16T03:30:15.663Z,0.00
2019-01-16T03:31:15.757Z,0.00
2019-01-16T03:32:15.824Z,0.00
2019-01-16T03:33:15.918Z,0.00
2019-01-16T03:34:16.004Z,0.00
2019-01-16T03:35:16.095Z,0.00
2019-01-16T03:36:16.182Z,0.00
2019-01-16T03:37:16.271Z,0.00
2019-01-16T03:38:16.358Z,0.00
2019-01-16T03:39:16.451Z,0.00
2019-01-16T03:40:16.537Z,0.00
2019-01-16T03:41:16.636Z,0.00
2019-01-16T03:42:16.736Z,0.00
2019-01-16T03:43:16.829Z,0.00
2019-01-16T03:44:16.915Z,0.00
2019-01-16T03:45:17.002Z,0.00
2019-01-16T03:46:17.093Z,0.00
2019-01-16T03:47:17.180Z,0.00
2019-01-16T03:48:17.269Z,0.00
2019-01-16T03:49:17.357Z,0.00
2019-01-16T03:50:17.448Z,0.00
2019-01-16T03:51:17.534Z,0.00
2019-01-16T03:52:17.629Z,0.00
2019-01-16T03:53:17.715Z,0.00
2019-01-16T03:54:17.802Z,0.00
2019-01-16T03:55:17.891Z,0.00
2019-01-16T03:56:17.982Z,0.00
2019-01-16T03:57:18.071Z,0.00
2019-01-16T03:58:18.157Z,0.00
2019-01-16T03:59:18.246Z,0.00
2019-01-16T04:00:18.336Z,0.00
2019-01-16T04:01:18.420Z,0.00
2019-01-16T04:02:18.508Z,0.00
2019-01-16T04:03:18.608Z,0.00
2019-01-16T04:04:18.678Z,0.00
2019-01-16T04:05:18.769Z,0.00
2019-01-16T04:06:18.907Z,0.00
2019-01-16T04:07:18.950Z,0.00
2019-01-16T04:08:19.032Z,0.00
2019-01-16T04:09:19.124Z,0.00
2019-01-16T04:10:19.209Z,0.00
2019-01-16T04:11:19.303Z,0.00
2019-01-16T04:12:19.389Z,0.00
2019-01-16T04:13:19.479Z,0.00
2019-01-16T04:14:19.563Z,0.00
2019-01-16T04:15:19.654Z,0.00
2019-01-16T04:16:19.744Z,0.00
2019-01-16T04:17:19.835Z,0.00
2019-01-16T04:18:19.923Z,0.00
2019-01-16T04:19:21.802Z,0.00
2019-01-16T04:20:20.100Z,0.00
2019-01-16T04:21:20.192Z,0.00
2019-01-16T04:22:20.280Z,0.00
2019-01-16T04:23:20.360Z,0.00
2019-01-16T04:24:20.461Z,0.00
2019-01-16T04:25:20.550Z,0.00
2019-01-16T04:26:20.638Z,0.00
2019-01-16T04:27:20.727Z,0.00
2019-01-16T04:28:20.812Z,0.00
2019-01-16T04:29:20.903Z,0.00
2019-01-16T04:30:20.985Z,0.00
2019-01-16T04:31:21.073Z,0.00
2019-01-16T04:32:21.163Z,0.00
2019-01-16T04:33:21.254Z,0.00
2019-01-16T04:34:21.338Z,0.00
2019-01-16T04:35:21.429Z,0.00
2019-01-16T04:36:21.522Z,0.00
2019-01-16T04:37:21.609Z,0.00
2019-01-16T04:38:21.699Z,0.00
2019-01-16T04:39:21.787Z,0.00
2019-01-16T04:40:21.875Z,0.00
2019-01-16T04:41:21.966Z,0.00
2019-01-16T04:42:22.056Z,0.00
2019-01-16T04:43:22.144Z,0.00
2019-01-16T04:44:22.228Z,0.00
2019-01-16T04:45:22.320Z,0.00
2019-01-16T04:46:22.479Z,0.00
2019-01-16T04:47:22.498Z,0.00
2019-01-16T04:48:22.588Z,0.00
2019-01-16T04:49:30.144Z,0.00
2019-01-16T04:50:22.765Z,0.00
2019-01-16T04:51:22.854Z,0.00
2019-01-16T04:52:22.941Z,0.00
2019-01-16T04:53:23.031Z,0.00
2019-01-16T04:54:23.121Z,0.00
2019-01-16T04:55:23.208Z,0.00
2019-01-16T04:56:23.306Z,0.00
2019-01-16T04:57:23.392Z,0.00
2019-01-16T04:58:23.480Z,0.00
2019-01-16T04:59:23.573Z,0.00
2019-01-16T05:00:23.667Z,0.00
2019-01-16T05:01:23.747Z,0.00
2019-01-16T05:02:23.840Z,0.00
2019-01-16T05:03:23.925Z,0.00
2019-01-16T05:04:24.011Z,0.00
2019-01-16T05:05:24.102Z,0.00
2019-01-16T05:06:24.189Z,0.00
2019-01-16T05:07:24.281Z,0.00
2019-01-16T05:08:24.370Z,0.00
2019-01-16T05:09:24.457Z,0.00
2019-01-16T05:10:24.547Z,0.00
2019-01-16T05:11:24.638Z,0.00
2019-01-16T05:12:24.727Z,0.00
2019-01-16T05:13:24.815Z,0.00
2019-01-16T05:14:24.905Z,0.00
2019-01-16T05:15:24.989Z,0.00
2019-01-16T05:16:25.090Z,0.00
2019-01-16T05:17:25.175Z,0.00
2019-01-16T05:18:25.253Z,0.00
2019-01-16T05:19:25.359Z,0.00
2019-01-16T05:20:25.446Z,0.00
2019-01-16T05:21:25.531Z,0.00
2019-01-16T05:22:25.620Z,0.00
2019-01-16T05:23:25.720Z,0.00
2019-01-16T05:24:25.803Z,0.00
2019-01-16T05:25:25.887Z,0.00
2019-01-16T05:26:27.712Z,0.00
2019-01-16T05:27:26.061Z,0.00
2019-01-16T05:28:26.142Z,0.00
2019-01-16T05:29:26.233Z,0.00
2019-01-16T05:30:26.314Z,4.00
2019-01-16T05:31:26.402Z,4.00
2019-01-16T05:32:26.499Z,4.00
2019-01-16T05:33:26.588Z,4.00
2019-01-16T05:34:35.315Z,4.00
2019-01-16T05:35:26.791Z,4.00
2019-01-16T05:36:35.518Z,4.00
2019-01-16T05:37:35.618Z,4.00
2019-01-16T05:38:27.084Z,4.00
2019-01-16T05:39:27.170Z,4.00
2019-01-16T05:40:27.261Z,4.00
2019-01-16T05:41:27.356Z,4.00
2019-01-16T05:42:27.444Z,4.00
2019-01-16T05:43:27.524Z,4.00
2019-01-16T05:44:27.614Z,4.00
2019-01-16T05:45:27.703Z,4.00
2019-01-16T05:46:36.433Z,4.00
2019-01-16T05:47:36.539Z,4.00
2019-01-16T05:48:28.003Z,4.00
2019-01-16T05:49:28.093Z,4.00
2019-01-16T05:50:28.181Z,4.00
2019-01-16T05:51:28.269Z,4.00
2019-01-16T05:52:28.356Z,4.00
2019-01-16T05:53:28.445Z,4.00
2019-01-16T05:54:28.538Z,4.00
2019-01-16T05:55:28.624Z,4.00
2019-01-16T05:56:28.708Z,4.00
2019-01-16T05:57:28.796Z,4.00
2019-01-16T05:58:28.911Z,4.00
2019-01-16T05:59:28.961Z,4.00
2019-01-16T06:00:29.049Z,4.00
2019-01-16T06:01:29.138Z,4.00
2019-01-16T06:02:29.228Z,4.00
2019-01-16T06:03:29.748Z,4.00
2019-01-16T06:04:29.406Z,4.00
2019-01-16T06:05:29.496Z,4.00
2019-01-16T06:06:29.584Z,4.00
2019-01-16T06:07:29.676Z,4.00
2019-01-16T06:08:29.768Z,4.00
2019-01-16T06:09:29.852Z,4.00
2019-01-16T06:10:29.947Z,4.00
2019-01-16T06:11:30.033Z,4.00
2019-01-16T06:12:30.151Z,4.00
2019-01-16T06:13:30.215Z,4.00
2019-01-16T06:14:30.298Z,4.00
2019-01-16T06:15:30.387Z,4.00
2019-01-16T06:16:30.478Z,4.00
2019-01-16T06:17:30.570Z,4.00
2019-01-16T06:18:30.659Z,4.00
2019-01-16T06:19:30.745Z,4.00
2019-01-16T06:20:30.843Z,4.00
2019-01-16T06:21:30.932Z,4.00
2019-01-16T06:22:31.021Z,4.00
2019-01-16T06:23:31.112Z,4.00
2019-01-16T06:24:31.201Z,4.00
2019-01-16T06:25:31.290Z,4.00
2019-01-16T06:26:31.388Z,4.00
2019-01-16T06:27:32.505Z,4.00
2019-01-16T06:28:31.559Z,4.00
2019-01-16T06:29:31.648Z,4.00
2019-01-16T06:30:31.737Z,4.00
2019-01-16T06:31:31.829Z,4.00
2019-01-16T06:32:31.920Z,4.00
2019-01-16T06:33:32.008Z,4.00
2019-01-16T06:34:32.100Z,4.00
2019-01-16T06:35:32.192Z,4.00
2019-01-16T06:36:32.281Z,4.00
2019-01-16T06:37:32.371Z,4.00
2019-01-16T06:38:32.465Z,4.00
2019-01-16T06:39:32.555Z,4.00
2019-01-16T06:40:32.646Z,4.00
2019-01-16T06:41:32.724Z,4.00
2019-01-16T06:42:32.822Z,4.00
2019-01-16T06:43:32.954Z,4.00
2019-01-16T06:44:32.996Z,4.00
2019-01-16T06:45:33.087Z,4.00
2019-01-16T06:46:33.178Z,4.00
2019-01-16T06:47:33.324Z,4.00
2019-01-16T06:48:33.346Z,4.00
2019-01-16T06:49:33.441Z,4.00
2019-01-16T06:50:33.533Z,4.00
2019-01-16T06:51:33.623Z,4.00
2019-01-16T06:52:33.714Z,4.00
2019-01-16T06:53:33.804Z,4.00
2019-01-16T06:54:33.893Z,4.00
2019-01-16T06:55:33.986Z,4.00
2019-01-16T06:56:34.071Z,4.00
2019-01-16T06:57:34.167Z,4.00
2019-01-16T06:58:34.255Z,8.00
2019-01-16T06:59:34.344Z,8.00
2019-01-16T07:00:34.432Z,4.00
2019-01-16T07:01:34.521Z,4.00
2019-01-16T07:02:34.612Z,8.00
2019-01-16T07:03:34.706Z,4.00
2019-01-16T07:04:34.797Z,8.00
2019-01-16T07:05:34.880Z,8.00
2019-01-16T07:06:34.969Z,4.00
2019-01-16T07:07:35.065Z,4.00
2019-01-16T07:08:35.153Z,8.00
2019-01-16T07:09:35.241Z,8.00
2019-01-16T07:10:35.369Z,8.00
2019-01-16T07:11:35.420Z,8.00
2019-01-16T07:12:35.507Z,8.00
2019-01-16T07:13:35.600Z,8.00
2019-01-16T07:14:35.690Z,12.00
2019-01-16T07:15:35.777Z,12.00
2019-01-16T07:16:35.869Z,12.00
2019-01-16T07:17:35.960Z,16.00
2019-01-16T07:18:36.051Z,16.00
2019-01-16T07:19:36.140Z,16.00
2019-01-16T07:20:36.231Z,20.00
2019-01-16T07:21:36.321Z,24.00
2019-01-16T07:22:36.405Z,20.00
2019-01-16T07:23:36.494Z,24.00
2019-01-16T07:24:36.585Z,24.00
2019-01-16T07:25:36.671Z,24.00
2019-01-16T07:26:36.763Z,28.00
2019-01-16T07:27:36.859Z,28.00
2019-01-16T07:28:36.950Z,32.00
2019-01-16T07:29:37.047Z,32.00
2019-01-16T07:30:37.140Z,40.00
2019-01-16T07:31:37.233Z,40.00
2019-01-16T07:32:37.325Z,40.00
2019-01-16T07:33:37.421Z,44.00
2019-01-16T07:34:37.515Z,44.00
2019-01-16T07:35:37.610Z,48.00
2019-01-16T07:39:21.828Z,60.00
2019-01-16T07:40:21.916Z,68.00
2019-01-16T07:41:22.011Z,72.00
2019-01-16T07:42:22.097Z,76.00
2019-01-16T07:43:22.189Z,84.00
2019-01-16T07:44:22.284Z,92.00
2019-01-16T07:45:22.367Z,96.00
2019-01-16T07:46:22.456Z,104.00
2019-01-16T07:47:22.546Z,112.00
2019-01-16T07:48:22.634Z,116.00
2019-01-16T07:49:22.728Z,124.00
2019-01-16T07:50:22.820Z,136.00
2019-01-16T07:51:22.894Z,152.00
2019-01-16T07:52:22.982Z,148.00
2019-01-16T07:53:23.074Z,144.00
2019-01-16T07:54:23.164Z,156.00
2019-01-16T07:55:23.295Z,172.00
2019-01-16T07:56:23.393Z,192.00
2019-01-16T07:57:23.483Z,196.00
2019-01-16T07:58:23.570Z,196.00
2019-01-16T07:59:23.655Z,192.00
2019-01-16T08:00:23.746Z,204.00
2019-01-16T08:01:23.834Z,196.00
2019-01-16T08:02:23.924Z,204.00
2019-01-16T08:03:24.016Z,208.00
2019-01-16T08:04:24.111Z,212.00
2019-01-16T08:05:24.193Z,224.00
2019-01-16T08:06:24.286Z,236.00
2019-01-16T08:07:24.374Z,256.00
2019-01-16T08:08:24.466Z,268.00
2019-01-16T08:09:24.553Z,284.00
2019-01-16T08:10:24.639Z,296.00
2019-01-16T08:11:24.730Z,304.00
2019-01-16T08:12:24.821Z,264.00
2019-01-16T08:13:24.911Z,252.00
2019-01-16T08:14:24.995Z,244.00
2019-01-16T08:15:25.079Z,256.00
2019-01-16T08:16:25.172Z,268.00
2019-01-16T08:17:25.265Z,268.00
2019-01-16T08:18:25.350Z,276.00
2019-01-16T08:19:25.438Z,292.00
2019-01-16T08:20:25.528Z,288.00
2019-01-16T08:21:25.626Z,312.00
2019-01-16T08:22:25.715Z,332.00
2019-01-16T08:23:25.805Z,344.00
2019-01-16T08:24:25.891Z,348.00
2019-01-16T08:25:25.991Z,368.00
2019-01-16T08:26:26.071Z,344.00
2019-01-16T08:27:26.167Z,328.00
2019-01-16T08:28:26.269Z,328.00
2019-01-16T08:29:26.359Z,352.00
2019-01-16T08:30:26.447Z,380.00
2019-01-16T08:31:26.537Z,376.00
2019-01-16T08:32:26.621Z,372.00
2019-01-16T08:33:26.718Z,388.00
2019-01-16T08:34:26.808Z,392.00
2019-01-16T08:35:26.886Z,400.00
2019-01-16T08:36:26.975Z,388.00
2019-01-16T08:37:27.068Z,380.00
2019-01-16T08:38:27.150Z,376.00
2019-01-16T08:39:27.245Z,384.00
2019-01-16T08:40:27.334Z,384.00
2019-01-16T08:41:27.422Z,364.00
2019-01-16T08:42:27.505Z,348.00
2019-01-16T08:43:27.602Z,340.00
2019-01-16T08:44:27.690Z,344.00
2019-01-16T08:45:27.782Z,352.00
2019-01-16T08:46:27.876Z,352.00
2019-01-16T08:47:27.957Z,352.00
2019-01-16T08:48:28.048Z,368.00
2019-01-16T08:49:28.139Z,384.00
2019-01-16T08:50:32.491Z,396.00
2019-01-16T08:51:28.317Z,396.00
2019-01-16T08:52:28.413Z,408.00
2019-01-16T08:53:28.494Z,424.00
2019-01-16T08:54:28.584Z,412.00
2019-01-16T08:55:28.664Z,392.00
2019-01-16T08:56:28.753Z,380.00
2019-01-16T08:57:28.845Z,368.00
2019-01-16T08:58:28.935Z,364.00
2019-01-16T08:59:29.010Z,356.00
2019-01-16T09:00:29.116Z,352.00
2019-01-16T09:01:32.783Z,360.00
2019-01-16T09:02:29.313Z,356.00
2019-01-16T09:03:29.386Z,340.00
2019-01-16T09:04:29.482Z,320.00
2019-01-16T09:05:29.582Z,308.00
2019-01-16T09:06:29.669Z,316.00
2019-01-16T09:07:29.765Z,316.00
2019-01-16T09:08:29.856Z,320.00
2019-01-16T09:09:29.945Z,340.00
2019-01-16T09:10:30.035Z,332.00
2019-01-16T09:11:30.165Z,320.00
2019-01-16T09:14:14.301Z,356.00
2019-01-16T09:15:14.393Z,368.00
2019-01-16T09:16:14.481Z,384.00
2019-01-16T09:17:14.574Z,396.00
2019-01-16T09:18:14.680Z,416.00
2019-01-16T09:19:14.742Z,424.00
2019-01-16T09:20:14.833Z,464.00
2019-01-16T09:21:14.914Z,488.00
2019-01-16T09:22:15.001Z,496.00
2019-01-16T09:23:15.083Z,496.00
2019-01-16T09:24:15.173Z,492.00
2019-01-16T09:25:15.275Z,484.00
2019-01-16T09:26:15.363Z,496.00
2019-01-16T09:27:15.453Z,516.00
2019-01-16T09:28:15.534Z,548.00
2019-01-16T09:29:15.625Z,596.00
2019-01-16T09:30:15.717Z,628.00
2019-01-16T09:31:15.795Z,696.00
2019-01-16T09:32:15.878Z,764.00
2019-01-16T09:33:15.967Z,808.00
2019-01-16T09:34:16.053Z,856.00
2019-01-16T09:35:16.143Z,924.00
2019-01-16T09:36:16.226Z,972.00
2019-01-16T09:37:16.326Z,916.00
2019-01-16T09:38:16.404Z,888.00
2019-01-16T09:39:16.491Z,896.00
2019-01-16T09:40:16.579Z,896.00
2019-01-16T09:41:16.669Z,844.00
2019-01-16T09:42:16.784Z,824.00
2019-01-16T09:43:16.843Z,780.00
2019-01-16T09:44:16.931Z,768.00
2019-01-16T09:45:17.021Z,744.00
2019-01-16T09:46:17.113Z,760.00
2019-01-16T09:47:17.202Z,788.00
2019-01-16T09:48:17.292Z,804.00
2019-01-16T09:49:17.381Z,800.00
2019-01-16T09:50:17.474Z,820.00
2019-01-16T09:51:17.565Z,836.00
2019-01-16T09:52:17.644Z,892.00
2019-01-16T09:53:17.735Z,848.00
2019-01-16T09:54:17.818Z,828.00
2019-01-16T09:55:17.911Z,816.00
2019-01-16T09:56:18.005Z,720.00
2019-01-16T09:57:18.135Z,720.00
2019-01-16T09:58:18.158Z,744.00
2019-01-16T09:59:18.250Z,728.00
2019-01-16T10:00:18.337Z,712.00
2019-01-16T10:01:18.428Z,712.00
2019-01-16T10:02:18.549Z,732.00
2019-01-16T10:03:18.596Z,772.00
2019-01-16T10:04:18.697Z,736.00
2019-01-16T10:05:18.771Z,740.00
2019-01-16T10:06:18.972Z,756.00
2019-01-16T10:07:18.960Z,796.00
2019-01-16T10:08:19.064Z,784.00
2019-01-16T10:09:19.129Z,768.00
2019-01-16T10:10:19.219Z,744.00
2019-01-16T10:11:19.310Z,752.00
2019-01-16T10:12:19.406Z,752.00
2019-01-16T10:13:19.483Z,772.00
2019-01-16T10:14:19.579Z,836.00
2019-01-16T10:15:19.667Z,900.00
2019-01-16T10:16:19.748Z,888.00
2019-01-16T10:17:19.928Z,916.00
2019-01-16T10:18:19.967Z,928.00
2019-01-16T10:19:20.054Z,916.00
2019-01-16T10:20:20.134Z,900.00
2019-01-16T10:21:20.221Z,848.00
2019-01-16T10:22:20.297Z,788.00
2019-01-16T10:23:20.381Z,772.00
2019-01-16T10:24:20.462Z,752.00
2019-01-16T10:25:20.569Z,780.00
2019-01-16T10:26:20.619Z,788.00
2019-01-16T10:27:20.698Z,788.00
2019-01-16T10:28:20.781Z,848.00
2019-01-16T10:29:20.881Z,936.00
2019-01-16T10:30:20.961Z,976.00
2019-01-16T10:31:21.062Z,936.00
2019-01-16T10:32:21.107Z,876.00
2019-01-16T10:33:21.188Z,852.00
2019-01-16T10:34:21.283Z,860.00
2019-01-16T10:35:21.356Z,924.00
2019-01-16T10:36:21.436Z,1012.00
2019-01-16T10:37:21.513Z,1068.00
2019-01-16T10:38:21.608Z,1044.00
2019-01-16T10:39:21.695Z,1008.00
2019-01-16T10:40:21.780Z,1008.00
2019-01-16T10:41:21.864Z,1048.00
2019-01-16T10:42:21.948Z,1084.00
2019-01-16T10:43:22.035Z,1044.00
2019-01-16T10:44:22.133Z,1080.00
2019-01-16T10:45:22.231Z,1076.00
2019-01-16T10:46:22.280Z,1112.00
2019-01-16T10:47:22.372Z,1168.00
2019-01-16T10:48:22.463Z,1220.00
2019-01-16T10:49:22.551Z,1212.00
2019-01-16T10:50:22.623Z,1176.00
2019-01-16T10:51:22.724Z,1140.00
2019-01-16T10:52:22.790Z,1080.00
2019-01-16T10:53:22.876Z,1060.00
2019-01-16T10:54:22.974Z,1032.00
2019-01-16T10:55:23.012Z,1024.00
2019-01-16T10:56:23.118Z,1064.00
2019-01-16T10:57:23.199Z,1040.00
2019-01-16T10:58:23.254Z,1012.00
2019-01-16T10:59:23.333Z,1028.00
2019-01-16T11:00:23.421Z,948.00
2019-01-16T11:01:23.515Z,888.00
2019-01-16T11:02:23.605Z,884.00
2019-01-16T11:03:23.695Z,908.00
2019-01-16T11:04:23.777Z,880.00
2019-01-16T11:05:23.870Z,872.00
2019-01-16T11:06:23.951Z,916.00
2019-01-16T11:07:24.049Z,1040.00
2019-01-16T11:08:24.130Z,1032.00
2019-01-16T11:09:24.225Z,976.00
2019-01-16T11:10:24.317Z,1000.00
2019-01-16T11:11:24.403Z,1060.00
2019-01-16T11:12:24.489Z,1120.00
2019-01-16T11:13:24.592Z,1160.00
2019-01-16T11:14:24.660Z,1116.00
2019-01-16T11:15:24.759Z,1100.00
2019-01-16T11:16:24.847Z,1020.00
2019-01-16T11:17:24.949Z,932.00
2019-01-16T11:18:25.021Z,900.00
2019-01-16T11:19:25.110Z,912.00
2019-01-16T11:20:25.201Z,948.00
2019-01-16T11:21:25.290Z,984.00
2019-01-16T11:22:25.384Z,1036.00
2019-01-16T11:23:25.461Z,1124.00
2019-01-16T11:24:25.554Z,1124.00
2019-01-16T11:25:25.640Z,1124.00
2019-01-16T11:26:25.718Z,1132.00
2019-01-16T11:27:25.834Z,1116.00
2019-01-16T11:28:25.903Z,1092.00
2019-01-16T11:29:25.986Z,1100.00
2019-01-16T11:30:26.082Z,1128.00
2019-01-16T11:31:26.157Z,1136.00
2019-01-16T11:32:26.259Z,1144.00
2019-01-16T11:33:26.332Z,1140.00
2019-01-16T11:34:26.414Z,1168.00
2019-01-16T11:35:26.515Z,1156.00
2019-01-16T11:36:26.630Z,1228.00
2019-01-16T11:37:26.724Z,1272.00
2019-01-16T11:38:26.802Z,1316.00
2019-01-16T11:39:26.896Z,1240.00
2019-01-16T11:40:26.984Z,1180.00
2019-01-16T11:41:27.073Z,1148.00
2019-01-16T11:42:27.158Z,1212.00
2019-01-16T11:43:27.247Z,1172.00
2019-01-16T11:44:27.337Z,1144.00
2019-01-16T11:45:27.422Z,1060.00
2019-01-16T11:46:27.512Z,1036.00
2019-01-16T11:47:27.600Z,1068.00
2019-01-16T11:48:27.687Z,1084.00
2019-01-16T11:49:27.775Z,1068.00
2019-01-16T11:50:27.870Z,1048.00
2019-01-16T11:51:33.633Z,1024.00
2019-01-16T11:52:28.039Z,1020.00
2019-01-16T11:53:28.143Z,1024.00
2019-01-16T11:54:28.211Z,996.00
2019-01-16T11:55:28.300Z,988.00
2019-01-16T11:56:28.375Z,976.00
2019-01-16T11:57:28.480Z,992.00
2019-01-16T11:58:28.570Z,1052.00
2019-01-16T11:59:29.206Z,1152.00
2019-01-16T12:00:28.752Z,1184.00
2019-01-16T12:01:28.836Z,1176.00
2019-01-16T12:02:28.942Z,1116.00
2019-01-16T12:03:29.007Z,1104.00
2019-01-16T12:04:29.087Z,1084.00
2019-01-16T12:05:29.174Z,1084.00
2019-01-16T12:06:29.260Z,1084.00
2019-01-16T12:07:29.347Z,1108.00
2019-01-16T12:08:29.427Z,1100.00
2019-01-16T12:09:29.515Z,1076.00
2019-01-16T12:10:29.602Z,1072.00
2019-01-16T12:11:29.678Z,1032.00
2019-01-16T12:12:29.788Z,1072.00
2019-01-16T12:13:29.859Z,1100.00
2019-01-16T12:14:29.962Z,1128.00
2019-01-16T12:15:30.044Z,1176.00
2019-01-16T12:16:30.127Z,1212.00
2019-01-16T12:17:30.222Z,1216.00
2019-01-16T12:18:30.313Z,1268.00
2019-01-16T12:19:30.392Z,1388.00
2019-01-16T12:20:30.482Z,1448.00
2019-01-16T12:21:30.570Z,1376.00
2019-01-16T12:22:30.657Z,1416.00
2019-01-16T12:23:30.743Z,1540.00
2019-01-16T12:24:30.862Z,1724.00
2019-01-16T12:25:30.936Z,1672.00
2019-01-16T12:26:31.080Z,1644.00
2019-01-16T12:27:31.107Z,1624.00
2019-01-16T12:28:31.175Z,1448.00
2019-01-16T12:29:31.294Z,1356.00
2019-01-16T12:30:31.354Z,1432.00
2019-01-16T12:31:31.436Z,1424.00
2019-01-16T12:32:31.501Z,1356.00
2019-01-16T12:33:31.589Z,1400.00
2019-01-16T12:34:31.689Z,1420.00
2019-01-16T12:35:31.759Z,1400.00
2019-01-16T12:36:31.882Z,1392.00
2019-01-16T12:37:31.913Z,1460.00
2019-01-16T12:38:31.997Z,1528.00
2019-01-16T12:39:32.073Z,1428.00
2019-01-16T12:40:32.157Z,1432.00
2019-01-16T12:41:32.242Z,1480.00
2019-01-16T12:42:32.327Z,1472.00
2019-01-16T12:43:32.414Z,1536.00
2019-01-16T12:44:32.510Z,1520.00
2019-01-16T12:45:32.603Z,1460.00
2019-01-16T12:46:32.690Z,1440.00
2019-01-16T12:47:32.772Z,1504.00
2019-01-16T12:50:15.893Z,1732.00
2019-01-16T12:51:15.980Z,1700.00
2019-01-16T12:52:16.084Z,1704.00
2019-01-16T12:53:16.164Z,1700.00
2019-01-16T12:54:16.242Z,1568.00
2019-01-16T12:55:16.330Z,1356.00
2019-01-16T12:56:16.423Z,1312.00
2019-01-16T12:57:16.508Z,1296.00
2019-01-16T12:58:16.598Z,1360.00
2019-01-16T12:59:16.689Z,1368.00
2019-01-16T13:00:16.778Z,1420.00
2019-01-16T13:01:16.864Z,1332.00